Time;durP1;ratioP1;P1;durP2;ratioP2;P2;SDS_P1;SDS_P2;PMS_P1;PMS_P2;Temp;Humidity;BMP_temperature;BMP_pressure;BME280_temperature;BME280_humidity;BME280_pressure;Samples;Min_cycle;Max_cycle;Signal;HPM_P1;HPM_P2
2022/02/26 00:01:29;;;;;;;138.10;56.58;;;-1.70;99.90;;;;;;5053284;28;20444;-88
2022/02/26 00:03:57;;;;;;;135.07;55.85;;;-1.70;99.90;;;;;;5052747;28;20021;-88
2022/02/26 00:06:22;;;;;;;142.30;59.97;;;-1.70;99.90;;;;;;5053177;28;20057;-88
2022/02/26 00:08:49;;;;;;;153.82;65.03;;;-1.70;99.90;;;;;;5052634;28;20048;-87
2022/02/26 00:11:17;;;;;;;126.68;54.50;;;-1.70;99.90;;;;;;5036699;28;20025;-88
2022/02/26 00:13:42;;;;;;;115.93;48.25;;;-1.80;99.90;;;;;;5036648;28;20448;-88
2022/02/26 00:16:11;;;;;;;88.80;40.20;;;-1.80;99.90;;;;;;5052930;28;20061;-88
2022/02/26 00:18:36;;;;;;;91.22;39.38;;;-1.70;99.90;;;;;;5052990;28;20454;-88
2022/02/26 00:21:04;;;;;;;83.25;36.42;;;-1.70;99.90;;;;;;5053681;28;20033;-88
2022/02/26 00:23:29;;;;;;;65.43;31.38;;;-1.70;99.90;;;;;;5052843;28;20056;-88
2022/02/26 00:25:55;;;;;;;57.22;26.52;;;-1.70;99.90;;;;;;5036002;28;20535;-88
2022/02/26 00:28:22;;;;;;;56.10;25.65;;;-1.70;99.90;;;;;;5052567;28;20074;-88
2022/02/26 00:30:48;;;;;;;50.58;24.08;;;-1.60;99.90;;;;;;5054028;28;20029;-88
2022/02/26 00:33:14;;;;;;;51.88;23.60;;;-1.60;99.90;;;;;;5052784;28;20032;-88
2022/02/26 00:35:41;;;;;;;56.33;26.40;;;-1.60;99.90;;;;;;5052735;28;20036;-88
2022/02/26 00:38:07;;;;;;;48.83;23.73;;;-1.50;99.90;;;;;;5055250;28;20036;-88
2022/02/26 00:40:33;;;;;;;50.63;23.98;;;-1.50;99.90;;;;;;5056291;28;20033;-88
2022/02/26 00:42:58;;;;;;;53.40;26.05;;;-1.50;99.90;;;;;;5056231;28;20094;-88
2022/02/26 00:45:24;;;;;;;55.75;25.30;;;-1.50;99.90;;;;;;5057448;28;20021;-88
2022/02/26 00:47:50;;;;;;;53.00;23.42;;;-1.50;99.90;;;;;;5056350;28;20383;-88
2022/02/26 00:50:16;;;;;;;50.67;24.50;;;-1.50;99.90;;;;;;5056283;28;20029;-87
2022/02/26 00:52:43;;;;;;;56.42;27.15;;;-1.50;99.90;;;;;;5056000;28;20028;-87
2022/02/26 00:55:09;;;;;;;51.50;25.67;;;-1.60;99.90;;;;;;5056346;28;20036;-87
2022/02/26 00:57:36;;;;;;;54.78;26.15;;;-1.60;99.90;;;;;;5057298;28;20033;-87
2022/02/26 01:00:07;;;;;;;49.17;23.95;;;-1.60;99.90;;;;;;5039705;28;20553;-87
2022/02/26 01:02:33;;;;;;;48.17;23.65;;;-1.60;99.90;;;;;;5056063;28;20021;-87
2022/02/26 01:04:59;;;;;;;46.97;24.33;;;-1.60;99.90;;;;;;5055785;28;20529;-87
2022/02/26 01:07:25;;;;;;;49.60;24.55;;;-1.60;99.90;;;;;;5055782;28;20111;-87
2022/02/26 01:09:52;;;;;;;53.58;25.05;;;-1.70;99.90;;;;;;5055953;28;20037;-88
2022/02/26 01:12:18;;;;;;;53.50;26.38;;;-1.70;99.90;;;;;;5056906;28;20104;-88
2022/02/26 01:14:44;;;;;;;49.40;24.70;;;-1.70;99.90;;;;;;5055779;28;20029;-88
2022/02/26 01:17:13;;;;;;;56.20;27.17;;;-1.60;99.90;;;;;;5056108;28;20029;-87
2022/02/26 01:19:40;;;;;;;54.50;24.95;;;-1.60;99.90;;;;;;5055867;28;20055;-87
2022/02/26 01:22:06;;;;;;;65.10;27.48;;;-1.60;99.90;;;;;;5055699;28;20479;-87
2022/02/26 01:24:32;;;;;;;56.90;26.95;;;-1.60;99.90;;;;;;5055337;28;20417;-87
2022/02/26 01:26:58;;;;;;;56.42;26.52;;;-1.60;99.90;;;;;;5055275;28;20167;-88
2022/02/26 01:29:25;;;;;;;68.07;30.00;;;-1.60;99.90;;;;;;5038192;28;20398;-87
2022/02/26 01:31:50;;;;;;;63.97;29.83;;;-1.60;99.90;;;;;;5039222;28;20025;-88
2022/02/26 01:34:16;;;;;;;72.63;32.58;;;-1.60;99.90;;;;;;5055451;28;20036;-88
2022/02/26 01:36:42;;;;;;;77.72;33.70;;;-1.60;99.90;;;;;;5056556;28;20032;-88
2022/02/26 01:39:10;;;;;;;82.45;34.25;;;-1.60;99.90;;;;;;5055503;28;20037;-88
2022/02/26 01:41:38;;;;;;;75.85;34.38;;;-1.60;99.90;;;;;;5056824;28;20063;-88
2022/02/26 01:44:05;;;;;;;74.95;34.72;;;-1.50;99.90;;;;;;5055138;28;20025;-87
2022/02/26 01:46:32;;;;;;;90.68;41.22;;;-1.50;99.90;;;;;;5055654;28;20028;-87
2022/02/26 01:48:58;;;;;;;86.65;36.58;;;-1.60;99.90;;;;;;5054631;28;20503;-87
2022/02/26 01:51:24;;;;;;;81.78;37.05;;;-1.60;99.90;;;;;;5055369;28;20076;-87
2022/02/26 01:53:50;;;;;;;75.72;33.72;;;-1.60;99.90;;;;;;5056158;28;20029;-87
2022/02/26 01:56:16;;;;;;;75.53;34.30;;;-1.70;99.90;;;;;;5054928;28;20075;-87
2022/02/26 01:58:44;;;;;;;78.22;38.47;;;-1.70;99.90;;;;;;5056221;28;20025;-88
2022/02/26 02:01:11;;;;;;;82.28;35.72;;;-1.70;99.90;;;;;;5055466;28;20447;-88
2022/02/26 02:03:37;;;;;;;77.07;35.40;;;-1.70;99.90;;;;;;5054825;28;20112;-87
2022/02/26 02:06:03;;;;;;;79.13;36.45;;;-1.80;99.90;;;;;;5038337;28;20040;-87
2022/02/26 02:08:30;;;;;;;89.30;38.28;;;-1.80;99.90;;;;;;5038367;28;20029;-87
2022/02/26 02:10:56;;;;;;;83.95;34.53;;;-1.80;99.90;;;;;;5054617;28;20040;-87
2022/02/26 02:13:23;;;;;;;77.78;34.25;;;-1.80;99.90;;;;;;5054994;28;20032;-88
2022/02/26 02:15:53;;;;;;;82.57;35.70;;;-1.80;99.90;;;;;;5054551;28;20025;-88
2022/02/26 02:18:20;;;;;;;84.30;37.60;;;-1.80;99.90;;;;;;5054503;28;20025;-88
2022/02/26 02:20:46;;;;;;;77.80;34.35;;;-1.80;99.90;;;;;;5054797;28;20467;-88
2022/02/26 02:23:12;;;;;;;69.95;32.70;;;-1.80;99.90;;;;;;5054356;28;20045;-88
2022/02/26 02:25:38;;;;;;;72.72;30.80;;;-1.80;99.90;;;;;;5054506;28;20025;-88
2022/02/26 02:28:07;;;;;;;70.00;30.02;;;-1.70;99.90;;;;;;5054547;28;20024;-88
2022/02/26 02:30:34;;;;;;;72.60;28.25;;;-1.70;99.90;;;;;;5054299;28;20021;-88
2022/02/26 02:33:03;;;;;;;79.65;27.88;;;-1.70;99.90;;;;;;5055571;28;20033;-88
2022/02/26 02:35:47;;;;;;;109.60;31.67;;;-1.60;99.90;;;;;;5037928;28;20029;-88
2022/02/26 02:38:16;;;;;;;138.60;31.88;;;-1.60;99.90;;;;;;5054023;28;20025;-88
2022/02/26 02:40:44;;;;;;;79.47;29.55;;;-1.60;99.90;;;;;;5054147;28;20357;-88
2022/02/26 02:43:11;;;;;;;98.57;30.38;;;-1.60;99.90;;;;;;5054052;28;20021;-88
2022/02/26 02:45:40;;;;;;;142.00;31.85;;;-1.50;99.90;;;;;;5054274;28;20025;-88
2022/02/26 02:48:07;;;;;;;104.03;29.10;;;-1.40;99.90;;;;;;5053988;28;20067;-88
2022/02/26 02:50:34;;;;;;;130.27;27.50;;;-1.40;99.90;;;;;;5054131;28;20021;-88
2022/02/26 02:53:01;;;;;;;140.60;28.60;;;-1.30;99.90;;;;;;5037298;28;20051;-88
2022/02/26 02:55:28;;;;;;;104.20;27.80;;;-1.30;99.90;;;;;;5054111;28;20033;-88
2022/02/26 02:57:55;;;;;;;87.38;24.60;;;-1.20;99.90;;;;;;5054185;28;20115;-88
2022/02/26 03:00:21;;;;;;;76.07;27.33;;;-1.20;99.90;;;;;;5053522;28;20025;-88
2022/02/26 03:02:47;;;;;;;83.95;27.92;;;-1.20;99.90;;;;;;5053372;28;20028;-88
2022/02/26 03:05:15;;;;;;;65.38;24.00;;;-1.10;99.90;;;;;;5036970;28;20057;-88
2022/02/26 03:07:41;;;;;;;96.97;26.05;;;-1.10;99.90;;;;;;5053852;28;20106;-88
2022/02/26 03:10:07;;;;;;;148.45;31.40;;;-1.00;99.90;;;;;;5053650;28;20064;-88
2022/02/26 03:12:33;;;;;;;133.15;28.75;;;-1.00;99.90;;;;;;5053531;28;20021;-88
2022/02/26 03:14:59;;;;;;;111.82;24.48;;;-1.00;99.90;;;;;;5053562;28;20025;-88
2022/02/26 03:17:25;;;;;;;98.35;27.38;;;-1.00;99.90;;;;;;5053679;28;20027;-88
2022/02/26 03:19:52;;;;;;;131.27;31.08;;;-1.00;99.90;;;;;;5053740;28;20443;-89
2022/02/26 03:22:19;;;;;;;70.57;23.77;;;-1.00;99.90;;;;;;5037170;28;20049;-89
2022/02/26 03:24:45;;;;;;;92.40;25.77;;;-1.00;99.90;;;;;;5053380;28;20029;-89
2022/02/26 03:27:11;;;;;;;65.93;22.40;;;-0.90;99.90;;;;;;5053178;28;20029;-89
2022/02/26 03:29:40;;;;;;;95.45;29.58;;;-0.90;99.90;;;;;;5053506;28;20483;-89
2022/02/26 03:32:07;;;;;;;112.75;27.95;;;-0.90;99.90;;;;;;5037278;28;20036;-89
2022/02/26 03:34:34;;;;;;;85.47;28.33;;;-0.80;99.90;;;;;;5037317;28;20475;-89
2022/02/26 03:37:01;;;;;;;193.10;40.83;;;-0.80;99.90;;;;;;5053444;28;20047;-89
2022/02/26 03:39:31;;;;;;;126.93;30.77;;;-0.70;99.90;;;;;;5036931;28;20029;-89
2022/02/26 03:42:06;;;;;;;114.88;31.80;;;-0.70;99.90;;;;;;5053471;28;20025;-89
2022/02/26 03:44:34;;;;;;;140.50;33.38;;;-0.70;99.90;;;;;;5053792;28;20036;-89
2022/02/26 03:47:00;;;;;;;172.27;34.53;;;-0.60;99.90;;;;;;5053190;28;20104;-89
2022/02/26 03:49:28;;;;;;;96.47;26.70;;;-0.60;99.90;;;;;;5053021;28;20491;-89
2022/02/26 03:51:54;;;;;;;87.55;23.67;;;-0.60;99.90;;;;;;5053262;28;20021;-89
2022/02/26 03:54:21;;;;;;;59.83;22.27;;;-0.60;99.90;;;;;;5054141;28;20441;-89
2022/02/26 03:56:47;;;;;;;121.43;25.50;;;-0.60;99.90;;;;;;5054406;28;20035;-89
2022/02/26 03:59:14;;;;;;;87.38;23.55;;;-0.60;99.90;;;;;;5052465;28;20037;-89
2022/02/26 04:01:41;;;;;;;98.75;30.33;;;-0.60;99.90;;;;;;5053921;28;20059;-89
2022/02/26 04:04:09;;;;;;;78.95;23.23;;;-0.60;99.90;;;;;;5053162;28;20052;-89
2022/02/26 04:06:35;;;;;;;118.85;26.83;;;-0.60;99.90;;;;;;5054619;28;20095;-89
2022/02/26 04:09:01;;;;;;;162.32;30.00;;;-0.60;99.90;;;;;;5053114;28;20104;-89
2022/02/26 04:11:27;;;;;;;126.30;26.60;;;-0.70;99.90;;;;;;5052983;28;20033;-89
2022/02/26 04:13:53;;;;;;;84.53;25.92;;;-0.70;99.90;;;;;;5056400;28;20032;-89
2022/02/26 04:16:18;;;;;;;78.03;25.48;;;-0.80;99.90;;;;;;5036956;28;20052;-88
2022/02/26 04:18:46;;;;;;;77.35;26.13;;;-0.90;99.90;;;;;;5069908;28;20029;-89
2022/02/26 04:21:13;;;;;;;80.47;27.60;;;-0.90;99.90;;;;;;5037828;28;20499;-89
2022/02/26 04:23:39;;;;;;;106.25;31.73;;;-0.90;99.90;;;;;;5036611;28;20045;-89
2022/02/26 04:26:05;;;;;;;126.68;33.40;;;-0.90;99.90;;;;;;5036768;28;20026;-89
2022/02/26 04:28:31;;;;;;;80.25;28.23;;;-0.90;99.90;;;;;;5036721;28;20022;-89
2022/02/26 04:30:57;;;;;;;64.05;24.35;;;-1.00;99.90;;;;;;5036856;28;20490;-88
2022/02/26 04:33:22;;;;;;;61.13;25.60;;;-1.00;99.90;;;;;;5036487;28;20059;-89
2022/02/26 04:35:48;;;;;;;67.47;25.25;;;-1.10;99.90;;;;;;5036702;28;20129;-88
2022/02/26 04:38:15;;;;;;;54.67;23.75;;;-1.10;99.90;;;;;;5036523;28;20021;-89
2022/02/26 04:40:41;;;;;;;50.55;23.40;;;-1.20;99.90;;;;;;5036547;28;20029;-88
2022/02/26 04:43:06;;;;;;;55.08;24.63;;;-1.30;99.90;;;;;;5069374;28;20538;-89
2022/02/26 04:45:32;;;;;;;48.38;22.80;;;-1.30;99.90;;;;;;5069690;28;20028;-89
2022/02/26 04:47:58;;;;;;;42.25;20.30;;;-1.40;99.90;;;;;;5069561;28;20418;-89
2022/02/26 04:50:25;;;;;;;46.50;20.70;;;-1.40;99.90;;;;;;5036657;28;20025;-88
2022/02/26 04:52:50;;;;;;;41.53;19.73;;;-1.40;99.90;;;;;;5036215;28;20125;-88
2022/02/26 04:55:17;;;;;;;43.42;21.17;;;-1.40;99.90;;;;;;5036029;28;20079;-88
2022/02/26 04:57:44;;;;;;;51.97;22.65;;;-1.40;99.90;;;;;;5038395;28;20040;-88
2022/02/26 05:00:11;;;;;;;45.92;22.13;;;-1.50;99.90;;;;;;5056485;28;20025;-88
2022/02/26 05:02:38;;;;;;;49.30;21.80;;;-1.50;99.90;;;;;;5039770;28;20123;-88
2022/02/26 05:05:04;;;;;;;49.60;23.10;;;-1.50;99.90;;;;;;5056815;28;20036;-89
2022/02/26 05:07:33;;;;;;;47.33;22.50;;;-1.50;99.90;;;;;;5057164;28;20471;-88
2022/02/26 05:09:59;;;;;;;56.20;25.55;;;-1.60;99.90;;;;;;5039729;28;20427;-88
2022/02/26 05:12:26;;;;;;;56.67;25.42;;;-1.60;99.90;;;;;;5056778;28;20029;-88
2022/02/26 05:14:54;;;;;;;66.70;29.25;;;-1.60;99.90;;;;;;5055954;28;20029;-89
2022/02/26 05:17:20;;;;;;;57.13;27.80;;;-1.60;99.90;;;;;;5040166;28;20052;-88
2022/02/26 05:19:46;;;;;;;53.38;26.45;;;-1.60;99.90;;;;;;5055750;28;20024;-89
2022/02/26 05:22:13;;;;;;;55.85;26.05;;;-1.60;99.90;;;;;;5055551;28;20132;-88
2022/02/26 05:24:41;;;;;;;51.78;25.70;;;-1.60;99.90;;;;;;5055547;28;20029;-89
2022/02/26 05:27:07;;;;;;;47.03;25.38;;;-1.60;99.90;;;;;;5039442;28;20488;-89
2022/02/26 05:29:33;;;;;;;56.33;26.98;;;-1.50;99.90;;;;;;5038986;28;20035;-89
2022/02/26 05:31:58;;;;;;;60.95;30.27;;;-1.50;99.90;;;;;;5054711;28;20375;-89
2022/02/26 05:34:24;;;;;;;58.25;28.30;;;-1.40;99.90;;;;;;5054703;28;20383;-89
2022/02/26 05:36:50;;;;;;;60.45;28.50;;;-1.40;99.90;;;;;;5054680;28;20108;-88
2022/02/26 05:39:15;;;;;;;72.05;31.88;;;-1.40;99.90;;;;;;5056123;28;20078;-89
2022/02/26 05:41:41;;;;;;;68.28;33.08;;;-1.30;99.90;;;;;;5053976;28;20032;-90
2022/02/26 05:44:07;;;;;;;73.75;33.58;;;-1.20;99.90;;;;;;5054735;28;20029;-89
2022/02/26 05:46:33;;;;;;;58.40;29.23;;;-1.20;99.90;;;;;;5054686;28;20021;-90
2022/02/26 05:48:59;;;;;;;57.63;29.63;;;-1.10;99.90;;;;;;5054915;28;20074;-90
2022/02/26 05:51:25;;;;;;;51.83;27.33;;;-1.00;99.90;;;;;;5054745;28;20021;-90
2022/02/26 05:53:52;;;;;;;55.28;28.45;;;-0.80;99.90;;;;;;5054400;28;20025;-91
2022/02/26 05:56:18;;;;;;;54.90;27.27;;;-0.70;99.90;;;;;;5054883;28;20035;-91
2022/02/26 05:58:44;;;;;;;56.50;28.55;;;-0.50;99.90;;;;;;5054298;28;20115;-89
2022/02/26 06:01:10;;;;;;;54.20;26.83;;;-0.40;99.90;;;;;;5037854;28;20025;-92
2022/02/26 06:03:36;;;;;;;55.55;28.33;;;-0.30;99.90;;;;;;5053563;28;20074;-91
2022/02/26 06:06:04;;;;;;;51.83;27.77;;;-0.10;99.90;;;;;;5054240;28;20052;-91
2022/02/26 06:08:30;;;;;;;57.90;27.52;;;0.00;99.90;;;;;;5054594;28;20044;-91
2022/02/26 06:10:57;;;;;;;46.95;26.02;;;0.10;99.90;;;;;;5054555;28;20029;-92
2022/02/26 06:13:24;;;;;;;51.40;27.08;;;0.20;99.90;;;;;;5054440;28;20089;-92
2022/02/26 06:15:49;;;;;;;54.75;26.90;;;0.30;99.90;;;;;;5055102;28;20456;-92
2022/02/26 06:18:15;;;;;;;48.40;25.45;;;0.40;99.90;;;;;;5054819;28;20036;-93
2022/02/26 06:20:43;;;;;;;50.28;26.90;;;0.50;99.90;;;;;;5055485;28;20021;-89
2022/02/26 06:23:09;;;;;;;51.08;26.95;;;0.60;99.90;;;;;;5055648;28;20064;-93
2022/02/26 06:25:36;;;;;;;47.58;25.13;;;0.70;99.90;;;;;;5054305;28;20122;-92
2022/02/26 06:28:02;;;;;;;50.78;25.80;;;0.90;99.90;;;;;;5055361;28;20033;-91
2022/02/26 06:30:32;;;;;;;43.22;23.52;;;1.00;99.90;;;;;;5054403;28;20115;-93
2022/02/26 06:32:57;;;;;;;43.63;23.25;;;1.20;99.90;;;;;;5056160;28;20025;-90
2022/02/26 06:35:23;;;;;;;46.92;25.02;;;1.30;99.90;;;;;;5054085;28;20029;-91
2022/02/26 06:37:49;;;;;;;45.53;24.98;;;1.40;99.90;;;;;;5054240;28;20108;-92
2022/02/26 06:40:14;;;;;;;43.80;24.02;;;1.50;99.90;;;;;;5053914;28;20063;-92
2022/02/26 06:42:40;;;;;;;43.72;23.63;;;1.60;99.90;;;;;;5053831;28;20083;-89
2022/02/26 06:45:06;;;;;;;40.60;23.30;;;1.70;99.90;;;;;;5053342;28;20391;-90
2022/02/26 06:47:32;;;;;;;44.65;24.42;;;1.80;99.90;;;;;;5053875;28;20017;-91
2022/02/26 06:49:58;;;;;;;43.28;22.48;;;1.90;99.90;;;;;;5053724;28;20048;-91
2022/02/26 06:52:27;;;;;;;38.90;23.17;;;2.00;99.90;;;;;;5053394;28;20017;-91
2022/02/26 06:54:54;;;;;;;44.88;23.05;;;2.00;99.90;;;;;;5053849;28;20025;-91
2022/02/26 06:57:19;;;;;;;37.97;22.17;;;2.10;99.90;;;;;;5054046;28;20025;-91
2022/02/26 06:59:47;;;;;;;39.17;21.20;;;2.20;99.90;;;;;;5053261;28;20166;-91
2022/02/26 07:02:14;;;;;;;49.85;27.23;;;2.20;99.90;;;;;;5053668;28;20423;-90
2022/02/26 07:04:43;;;;;;;124.57;55.45;;;2.30;99.90;;;;;;5053277;28;20435;-92
2022/02/26 07:07:09;;;;;;;187.00;76.85;;;2.30;99.90;;;;;;5053381;28;20040;-90
2022/02/26 07:09:38;;;;;;;194.07;76.50;;;2.40;99.90;;;;;;5053149;28;20024;-90
2022/02/26 07:12:04;;;;;;;72.72;36.38;;;2.40;99.90;;;;;;5053208;28;20025;-91
2022/02/26 07:14:30;;;;;;;63.42;31.58;;;2.40;99.90;;;;;;5052895;28;20529;-89
2022/02/26 07:16:56;;;;;;;53.40;27.63;;;2.30;99.90;;;;;;5053177;28;20073;-89
2022/02/26 07:19:22;;;;;;;53.10;26.58;;;2.40;99.90;;;;;;5052739;28;20025;-90
2022/02/26 07:21:47;;;;;;;49.78;25.67;;;2.30;99.90;;;;;;5052859;28;20025;-90
2022/02/26 07:24:13;;;;;;;39.40;22.20;;;2.30;99.90;;;;;;5052131;28;20041;-90
2022/02/26 07:26:39;;;;;;;45.08;24.38;;;2.40;99.90;;;;;;5052943;28;20418;-87
2022/02/26 07:29:06;;;;;;;41.70;22.50;;;2.40;99.90;;;;;;5052971;28;20021;-91
2022/02/26 07:31:31;;;;;;;45.10;23.08;;;2.50;99.90;;;;;;5052846;28;20082;-89
2022/02/26 07:33:57;;;;;;;45.60;23.30;;;2.50;99.90;;;;;;5052499;28;20037;-89
2022/02/26 07:36:23;;;;;;;39.17;20.80;;;2.60;99.90;;;;;;5053110;28;20021;-91
2022/02/26 07:38:49;;;;;;;40.03;19.73;;;2.70;99.90;;;;;;5053035;28;20364;-90
2022/02/26 07:41:16;;;;;;;38.35;19.60;;;2.80;99.90;;;;;;5053209;28;20059;-90
2022/02/26 07:43:41;;;;;;;39.30;20.65;;;2.80;99.90;;;;;;5052969;28;20032;-91
2022/02/26 07:46:07;;;;;;;33.13;19.00;;;2.90;99.90;;;;;;5052473;28;20062;-91
2022/02/26 07:48:34;;;;;;;81.78;35.90;;;3.00;99.90;;;;;;5053354;28;20090;-90
2022/02/26 07:51:00;;;;;;;61.13;28.48;;;3.10;99.90;;;;;;5053201;28;20033;-90
2022/02/26 07:53:27;;;;;;;48.83;25.10;;;3.20;99.90;;;;;;5053062;28;20029;-89
2022/02/26 07:55:53;;;;;;;37.83;20.40;;;3.30;99.90;;;;;;5053129;28;20462;-90
2022/02/26 07:58:21;;;;;;;35.03;19.98;;;3.30;99.90;;;;;;5053500;28;20029;-91
2022/02/26 08:00:48;;;;;;;49.10;24.83;;;3.20;99.90;;;;;;5052976;28;20048;-90
2022/02/26 08:03:14;;;;;;;78.32;40.05;;;3.20;99.90;;;;;;5052550;28;20078;-89
2022/02/26 08:05:40;;;;;;;50.67;25.33;;;3.20;99.90;;;;;;5052017;28;20048;-89
2022/02/26 08:08:07;;;;;;;40.72;21.67;;;3.20;99.90;;;;;;5052088;28;20021;-89
2022/02/26 08:10:34;;;;;;;62.97;28.58;;;3.20;99.90;;;;;;5052273;28;20017;-89
2022/02/26 08:13:00;;;;;;;40.90;22.45;;;3.10;99.90;;;;;;5052002;28;20104;-89
2022/02/26 08:15:28;;;;;;;33.53;18.98;;;3.10;99.90;;;;;;5052369;28;20013;-90
2022/02/26 08:17:53;;;;;;;32.45;18.20;;;3.10;99.90;;;;;;5052383;28;20360;-90
2022/02/26 08:20:23;;;;;;;33.85;17.77;;;3.20;99.90;;;;;;5052234;28;20066;-90
2022/02/26 08:22:49;;;;;;;31.05;16.35;;;3.20;99.90;;;;;;5049645;28;20029;-89
2022/02/26 08:25:15;;;;;;;35.45;17.35;;;3.10;99.90;;;;;;5052193;28;20364;-90
2022/02/26 08:27:42;;;;;;;29.23;16.30;;;3.20;99.90;;;;;;5052244;28;20020;-89
2022/02/26 08:30:10;;;;;;;30.17;15.95;;;3.20;99.90;;;;;;5052099;28;20025;-91
2022/02/26 08:32:36;;;;;;;27.73;15.68;;;3.20;99.90;;;;;;5052448;28;20531;-90
2022/02/26 08:35:06;;;;;;;25.05;14.93;;;3.20;99.90;;;;;;5052184;28;20148;-91
2022/02/26 08:37:33;;;;;;;26.00;15.80;;;3.20;99.90;;;;;;5052443;28;20059;-90
2022/02/26 08:40:00;;;;;;;25.65;15.15;;;3.20;99.90;;;;;;5051926;28;20126;-91
2022/02/26 08:42:27;;;;;;;28.67;16.45;;;3.20;99.90;;;;;;5052124;28;20029;-89
2022/02/26 08:44:54;;;;;;;23.30;14.30;;;3.20;99.90;;;;;;5052112;28;20021;-89
2022/02/26 08:47:20;;;;;;;27.27;14.98;;;3.20;99.90;;;;;;5052093;28;20017;-89
2022/02/26 08:49:46;;;;;;;26.17;15.02;;;3.20;99.90;;;;;;5052045;28;20029;-89
2022/02/26 08:52:12;;;;;;;25.63;14.48;;;3.30;99.90;;;;;;5051848;28;20048;-89
2022/02/26 08:54:38;;;;;;;26.67;15.48;;;3.30;99.90;;;;;;5051969;28;20063;-89
2022/02/26 08:57:04;;;;;;;29.50;16.67;;;3.30;99.90;;;;;;5052192;28;20028;-91
2022/02/26 08:59:31;;;;;;;24.65;14.85;;;3.30;99.90;;;;;;5053011;28;20017;-90
2022/02/26 09:01:58;;;;;;;26.55;15.18;;;3.40;99.90;;;;;;5055626;28;20088;-90
2022/02/26 09:04:24;;;;;;;23.73;13.63;;;3.40;99.90;;;;;;5055306;28;20449;-90
2022/02/26 09:06:49;;;;;;;23.05;14.13;;;3.50;99.90;;;;;;5055419;28;20045;-90
2022/02/26 09:09:18;;;;;;;25.70;14.32;;;3.50;99.90;;;;;;5055058;28;20498;-90
2022/02/26 09:11:44;;;;;;;24.45;13.25;;;3.60;99.90;;;;;;5054995;28;20026;-91
2022/02/26 09:14:10;;;;;;;21.55;13.20;;;3.70;99.90;;;;;;5054943;28;20020;-89
2022/02/26 09:16:37;;;;;;;24.25;13.48;;;3.70;99.90;;;;;;5055527;28;20032;-90
2022/02/26 09:19:03;;;;;;;22.00;13.48;;;3.80;99.90;;;;;;5037531;28;20175;-90
2022/02/26 09:21:30;;;;;;;20.83;12.75;;;3.70;99.90;;;;;;5055225;28;20149;-94
2022/02/26 09:23:56;;;;;;;20.75;12.68;;;3.90;99.90;;;;;;5054729;28;20422;-90
2022/02/26 09:26:21;;;;;;;25.67;14.23;;;3.90;99.90;;;;;;5055378;28;20104;-90
2022/02/26 09:28:47;;;;;;;22.20;13.65;;;3.90;99.90;;;;;;5054494;28;20205;-90
2022/02/26 09:31:14;;;;;;;21.52;13.52;;;3.90;99.90;;;;;;5055145;28;20464;-89
2022/02/26 09:33:42;;;;;;;21.40;13.57;;;3.80;99.90;;;;;;5055028;28;20029;-93
2022/02/26 09:36:10;;;;;;;22.45;13.35;;;3.80;99.90;;;;;;5055020;28;20036;-91
2022/02/26 09:38:38;;;;;;;26.30;13.82;;;3.80;99.90;;;;;;5055797;28;20025;-92
2022/02/26 09:41:05;;;;;;;24.65;12.77;;;3.70;99.90;;;;;;5055371;28;20079;-91
2022/02/26 09:43:31;;;;;;;20.83;12.70;;;3.70;99.90;;;;;;5055201;28;20037;-90
2022/02/26 09:45:58;;;;;;;22.42;13.80;;;3.70;99.90;;;;;;5055024;28;20035;-91
2022/02/26 09:48:24;;;;;;;30.45;17.05;;;3.60;99.90;;;;;;5055388;28;20554;-91
2022/02/26 09:50:50;;;;;;;27.25;14.57;;;3.60;99.90;;;;;;5054997;28;20033;-92
2022/02/26 09:53:18;;;;;;;23.23;14.30;;;3.50;99.90;;;;;;5054733;28;20029;-89
2022/02/26 09:55:45;;;;;;;21.13;13.73;;;3.40;99.90;;;;;;5054938;28;20155;-91
2022/02/26 09:58:15;;;;;;;20.48;13.45;;;3.40;99.90;;;;;;5055189;28;20032;-91
2022/02/26 10:00:42;;;;;;;24.10;14.77;;;3.40;99.90;;;;;;5054983;28;20032;-91
2022/02/26 10:03:31;;;;;;;22.20;13.52;;;3.40;99.90;;;;;;5055861;28;20025;-91
2022/02/26 10:06:16;;;;;;;22.70;13.13;;;3.40;99.90;;;;;;5054295;28;20025;-89
2022/02/26 10:08:43;;;;;;;22.40;13.07;;;3.40;99.90;;;;;;5053614;28;20134;-89
2022/02/26 10:11:33;;;;;;;32.75;14.63;;;3.40;99.90;;;;;;5054944;28;20055;-88
2022/02/26 10:14:10;;;;;;;35.25;18.35;;;3.40;99.90;;;;;;5043477;28;20889;-90
2022/02/26 10:16:52;;;;;;;98.38;45.10;;;3.50;99.90;;;;;;5052850;28;20033;-90
2022/02/26 10:19:29;;;;;;;29.35;16.48;;;3.40;99.90;;;;;;5050195;28;20029;-89
2022/02/26 10:22:04;;;;;;;28.98;16.05;;;3.40;99.90;;;;;;5052458;28;20528;-91
2022/02/26 10:24:31;;;;;;;30.23;17.02;;;3.40;99.90;;;;;;5051487;28;20112;-88
2022/02/26 10:27:05;;;;;;;30.63;17.17;;;3.50;99.90;;;;;;5055345;28;20070;-89
2022/02/26 10:29:37;;;;;;;20.75;13.32;;;3.50;99.90;;;;;;5051838;28;20467;-90
2022/02/26 10:32:04;;;;;;;21.50;13.27;;;3.70;99.90;;;;;;5053097;28;20159;-89
2022/02/26 10:34:43;;;;;;;34.28;14.85;;;3.80;99.90;;;;;;5054062;28;20017;-91
2022/02/26 10:37:15;;;;;;;21.40;12.60;;;3.90;99.90;;;;;;5051203;28;20029;-90
2022/02/26 10:39:42;;;;;;;19.23;10.93;;;4.00;99.90;;;;;;5053551;28;20468;-90
2022/02/26 10:42:17;;;;;;;17.88;10.98;;;4.20;99.90;;;;;;5054240;28;20033;-90
2022/02/26 10:44:44;;;;;;;16.30;10.70;;;4.30;99.90;;;;;;5053738;28;20024;-93
2022/02/26 10:47:15;;;;;;;17.77;11.25;;;4.40;99.90;;;;;;5037101;28;20029;-90
2022/02/26 10:49:47;;;;;;;19.45;11.05;;;4.40;99.90;;;;;;5054212;28;20078;-90
2022/02/26 10:52:16;;;;;;;17.13;10.73;;;4.40;99.90;;;;;;5050869;28;20033;-92
2022/02/26 10:54:43;;;;;;;15.82;9.68;;;4.40;99.90;;;;;;5053759;28;20039;-93
2022/02/26 10:57:11;;;;;;;14.57;8.95;;;4.40;99.90;;;;;;5054431;28;20356;-93
2022/02/26 10:59:44;;;;;;;13.98;8.35;;;4.30;99.90;;;;;;5054339;28;20060;-92
2022/02/26 11:02:12;;;;;;;13.32;7.95;;;4.30;99.90;;;;;;5084970;28;20467;-90
2022/02/26 11:04:40;;;;;;;11.98;7.22;;;4.40;99.90;;;;;;5051737;28;20067;-95
2022/02/26 11:07:09;;;;;;;11.43;6.93;;;4.50;99.90;;;;;;5048557;28;20025;-92
2022/02/26 11:09:39;;;;;;;13.35;7.50;;;4.60;99.90;;;;;;5053556;28;20078;-91
2022/02/26 11:12:05;;;;;;;14.10;6.50;;;4.60;99.90;;;;;;5053574;28;20471;-87
2022/02/26 11:14:35;;;;;;;13.18;6.95;;;4.70;99.90;;;;;;5054150;28;20357;-85
2022/02/26 11:17:01;;;;;;;14.13;7.15;;;4.70;99.90;;;;;;5036950;28;20061;-88
2022/02/26 11:19:29;;;;;;;18.73;8.13;;;4.70;99.90;;;;;;5040857;28;20037;-87
2022/02/26 11:21:58;;;;;;;13.55;7.18;;;4.70;99.90;;;;;;5053280;28;20028;-90
2022/02/26 11:24:25;;;;;;;17.23;8.02;;;4.70;99.90;;;;;;5054439;28;20041;-91
2022/02/26 11:26:52;;;;;;;11.25;6.30;;;4.80;99.90;;;;;;5053397;28;20017;-91
2022/02/26 11:29:21;;;;;;;12.30;7.47;;;4.90;99.90;;;;;;5053361;28;20056;-92
2022/02/26 11:32:06;;;;;;;10.63;6.90;;;5.00;99.90;;;;;;5048797;28;20025;-92
2022/02/26 11:34:37;;;;;;;14.10;7.85;;;5.20;99.90;;;;;;5053847;28;20041;-94
2022/02/26 11:37:12;;;;;;;14.00;7.80;;;5.30;99.90;;;;;;5052899;28;20163;-91
2022/02/26 11:39:48;;;;;;;27.70;13.77;;;5.40;99.90;;;;;;5052144;28;20033;-94
2022/02/26 11:42:16;;;;;;;16.50;9.43;;;5.50;99.90;;;;;;5033412;28;20437;-95
2022/02/26 11:44:48;;;;;;;16.92;9.50;;;5.60;99.90;;;;;;5066868;28;20032;-90
2022/02/26 11:47:14;;;;;;;24.08;11.65;;;5.50;99.90;;;;;;5039202;28;20387;-88
2022/02/26 11:50:06;;;;;;;15.60;8.55;;;5.50;99.90;;;;;;5054274;28;20451;-89
2022/02/26 11:52:42;;;;;;;17.48;9.05;;;5.50;99.90;;;;;;5034133;28;20548;-89
2022/02/26 11:55:43;;;;;;;13.57;7.15;;;5.40;99.90;;;;;;5033416;28;20033;-90
2022/02/26 11:58:28;;;;;;;18.38;10.75;;;5.30;99.90;;;;;;5033239;28;20388;-88
2022/02/26 12:01:11;;;;;;;43.75;15.40;;;5.30;99.90;;;;;;5045679;28;20040;-91
2022/02/26 12:04:01;;;;;;;28.42;14.77;;;5.30;99.90;;;;;;5052828;28;20037;-88
2022/02/26 12:06:35;;;;;;;16.58;7.55;;;5.30;99.90;;;;;;5054307;28;20021;-90
2022/02/26 12:09:04;;;;;;;15.93;7.35;;;5.40;99.90;;;;;;5052689;28;20020;-89
2022/02/26 12:11:34;;;;;;;22.67;8.82;;;5.40;99.90;;;;;;5053439;28;20025;-90
2022/02/26 12:14:22;;;;;;;24.60;9.90;;;5.50;99.90;;;;;;5052717;28;20028;-90
2022/02/26 12:16:56;;;;;;;30.25;12.13;;;5.60;99.90;;;;;;5036750;28;20574;-89
2022/02/26 12:19:29;;;;;;;14.95;6.90;;;5.60;99.90;;;;;;5052354;28;20021;-89
2022/02/26 12:22:00;;;;;;;22.35;7.30;;;5.70;99.90;;;;;;5033831;28;20060;-85
2022/02/26 12:24:29;;;;;;;16.17;6.40;;;5.80;99.90;;;;;;5032675;28;20044;-86
2022/02/26 12:27:04;;;;;;;19.55;6.85;;;5.80;99.90;;;;;;5048482;28;20025;-89
2022/02/26 12:29:51;;;;;;;19.48;7.22;;;5.90;99.90;;;;;;5052428;28;20448;-89
2022/02/26 12:32:23;;;;;;;14.77;5.75;;;6.00;99.90;;;;;;5052610;28;20112;-88
2022/02/26 12:34:51;;;;;;;24.08;8.50;;;6.10;99.90;;;;;;5055722;28;20502;-88
2022/02/26 12:37:29;;;;;;;12.10;5.75;;;6.20;99.90;;;;;;5056397;28;20072;-90